sensor_id;sensor_type;location;lat;lon;timestamp;temperature;humidity
5705;DHT22;2877;48.238;11.160;2024-01-15T00:01:14;-0.40;99.90
5705;DHT22;2877;48.238;11.160;2024-01-15T00:03:39;-0.40;99.90
5705;DHT22;2877;48.238;11.160;2024-01-15T00:06:05;-0.70;99.90
5705;DHT22;2877;48.238;11.160;2024-01-15T00:08:31;-1.00;99.90
5705;DHT22;2877;48.238;11.160;2024-01-15T00:10:56;-1.30;99.90
5705;DHT22;2877;48.238;11.160;2024-01-15T00:13:22;-1.60;99.90
5705;DHT22;2877;48.238;11.160;2024-01-15T00:15:48;-1.70;99.90
5705;DHT22;2877;48.238;11.160;2024-01-15T00:18:13;-1.70;99.90
5705;DHT22;2877;48.238;11.160;2024-01-15T00:20:39;-1.60;99.90
5705;DHT22;2877;48.238;11.160;2024-01-15T00:23:04;-1.60;99.90
5705;DHT22;2877;48.238;11.160;2024-01-15T00:25:30;-1.60;99.90
5705;DHT22;2877;48.238;11.160;2024-01-15T00:27:55;-1.50;99.90
5705;DHT22;2877;48.238;11.160;2024-01-15T00:30:21;-1.50;99.90
5705;DHT22;2877;48.238;11.160;2024-01-15T00:32:46;-1.50;99.90
5705;DHT22;2877;48.238;11.160;2024-01-15T00:35:12;-1.40;99.90
5705;DHT22;2877;48.238;11.160;2024-01-15T00:37:37;-1.40;99.90
5705;DHT22;2877;48.238;11.160;2024-01-15T00:40:04;-1.40;99.90
5705;DHT22;2877;48.238;11.160;2024-01-15T00:42:30;-1.40;99.90
5705;DHT22;2877;48.238;11.160;2024-01-15T00:44:55;-1.30;99.90
5705;DHT22;2877;48.238;11.160;2024-01-15T00:47:21;-1.20;99.90
5705;DHT22;2877;48.238;11.160;2024-01-15T00:49:46;-1.20;99.90
5705;DHT22;2877;48.238;11.160;2024-01-15T00:52:12;-1.10;99.90
5705;DHT22;2877;48.238;11.160;2024-01-15T00:54:37;-1.10;99.90
5705;DHT22;2877;48.238;11.160;2024-01-15T00:57:03;-1.10;99.90
5705;DHT22;2877;48.238;11.160;2024-01-15T00:59:29;-1.10;99.90
5705;DHT22;2877;48.238;11.160;2024-01-15T01:01:54;-1.20;99.90
5705;DHT22;2877;48.238;11.160;2024-01-15T01:04:20;-1.20;99.90
5705;DHT22;2877;48.238;11.160;2024-01-15T01:06:45;-1.20;99.90
5705;DHT22;2877;48.238;11.160;2024-01-15T01:09:11;-1.30;99.90
5705;DHT22;2877;48.238;11.160;2024-01-15T01:11:36;-1.30;99.90
5705;DHT22;2877;48.238;11.160;2024-01-15T01:14:02;-1.40;99.90
5705;DHT22;2877;48.238;11.160;2024-01-15T01:16:28;-1.40;99.90
5705;DHT22;2877;48.238;11.160;2024-01-15T01:18:53;-1.50;99.90
5705;DHT22;2877;48.238;11.160;2024-01-15T01:21:19;-1.60;99.90
5705;DHT22;2877;48.238;11.160;2024-01-15T01:23:44;-1.60;99.90
5705;DHT22;2877;48.238;11.160;2024-01-15T01:26:10;-1.70;99.90
5705;DHT22;2877;48.238;11.160;2024-01-15T01:28:35;-1.70;99.90
5705;DHT22;2877;48.238;11.160;2024-01-15T01:31:01;-1.70;99.90
5705;DHT22;2877;48.238;11.160;2024-01-15T01:33:27;-1.70;99.90
5705;DHT22;2877;48.238;11.160;2024-01-15T01:35:52;-1.70;99.90
5705;DHT22;2877;48.238;11.160;2024-01-15T01:38:18;-1.70;99.90
5705;DHT22;2877;48.238;11.160;2024-01-15T01:40:44;-1.70;99.90
5705;DHT22;2877;48.238;11.160;2024-01-15T01:43:09;-1.70;99.90
5705;DHT22;2877;48.238;11.160;2024-01-15T01:45:35;-1.80;99.90
5705;DHT22;2877;48.238;11.160;2024-01-15T01:48:01;-1.80;99.90
5705;DHT22;2877;48.238;11.160;2024-01-15T01:50:29;-1.70;99.90
5705;DHT22;2877;48.238;11.160;2024-01-15T01:52:55;-1.80;99.90
5705;DHT22;2877;48.238;11.160;2024-01-15T01:55:22;-1.80;99.90
5705;DHT22;2877;48.238;11.160;2024-01-15T01:57:50;-1.80;99.90
5705;DHT22;2877;48.238;11.160;2024-01-15T02:00:16;-1.90;99.90
5705;DHT22;2877;48.238;11.160;2024-01-15T02:02:42;-1.90;99.90
5705;DHT22;2877;48.238;11.160;2024-01-15T02:05:08;-1.90;99.90
5705;DHT22;2877;48.238;11.160;2024-01-15T02:07:34;-1.90;99.90
5705;DHT22;2877;48.238;11.160;2024-01-15T02:10:01;-1.90;99.90
5705;DHT22;2877;48.238;11.160;2024-01-15T02:12:26;-2.00;99.90
5705;DHT22;2877;48.238;11.160;2024-01-15T02:14:52;-2.00;99.90
5705;DHT22;2877;48.238;11.160;2024-01-15T02:17:17;-2.10;99.90
5705;DHT22;2877;48.238;11.160;2024-01-15T02:19:43;-2.10;99.90
5705;DHT22;2877;48.238;11.160;2024-01-15T02:22:09;-2.20;99.90
5705;DHT22;2877;48.238;11.160;2024-01-15T02:24:34;-2.20;99.90
5705;DHT22;2877;48.238;11.160;2024-01-15T02:27:00;-2.20;99.90
5705;DHT22;2877;48.238;11.160;2024-01-15T02:29:25;-2.30;99.90
5705;DHT22;2877;48.238;11.160;2024-01-15T02:31:51;-2.40;99.90
5705;DHT22;2877;48.238;11.160;2024-01-15T02:34:17;-2.40;99.90
5705;DHT22;2877;48.238;11.160;2024-01-15T02:36:42;-2.50;99.90
5705;DHT22;2877;48.238;11.160;2024-01-15T02:39:08;-2.50;99.90
5705;DHT22;2877;48.238;11.160;2024-01-15T02:41:33;-2.40;99.90
5705;DHT22;2877;48.238;11.160;2024-01-15T02:43:59;-2.40;99.90
5705;DHT22;2877;48.238;11.160;2024-01-15T02:46:25;-2.40;99.90
5705;DHT22;2877;48.238;11.160;2024-01-15T02:48:50;-2.40;99.90
5705;DHT22;2877;48.238;11.160;2024-01-15T02:51:16;-2.40;99.90
5705;DHT22;2877;48.238;11.160;2024-01-15T02:53:41;-2.40;99.90
5705;DHT22;2877;48.238;11.160;2024-01-15T02:56:07;-2.40;99.90
5705;DHT22;2877;48.238;11.160;2024-01-15T02:58:33;-2.40;99.90
5705;DHT22;2877;48.238;11.160;2024-01-15T03:00:58;-2.50;99.90
5705;DHT22;2877;48.238;11.160;2024-01-15T03:03:24;-2.50;99.90
5705;DHT22;2877;48.238;11.160;2024-01-15T03:05:49;-2.50;99.90
5705;DHT22;2877;48.238;11.160;2024-01-15T03:08:15;-2.60;99.90
5705;DHT22;2877;48.238;11.160;2024-01-15T03:10:41;-2.60;99.90
5705;DHT22;2877;48.238;11.160;2024-01-15T03:13:06;-2.60;99.90
5705;DHT22;2877;48.238;11.160;2024-01-15T03:15:32;-2.60;99.90
5705;DHT22;2877;48.238;11.160;2024-01-15T03:17:57;-2.70;99.90
5705;DHT22;2877;48.238;11.160;2024-01-15T03:20:23;-2.80;99.90
5705;DHT22;2877;48.238;11.160;2024-01-15T03:22:48;-2.90;99.90
5705;DHT22;2877;48.238;11.160;2024-01-15T03:25:14;-2.90;99.90
5705;DHT22;2877;48.238;11.160;2024-01-15T03:27:40;-2.90;99.90
5705;DHT22;2877;48.238;11.160;2024-01-15T03:30:06;-2.90;99.90
5705;DHT22;2877;48.238;11.160;2024-01-15T03:32:31;-3.00;99.90
5705;DHT22;2877;48.238;11.160;2024-01-15T03:34:58;-3.00;99.90
5705;DHT22;2877;48.238;11.160;2024-01-15T03:37:24;-3.00;99.90
5705;DHT22;2877;48.238;11.160;2024-01-15T03:39:49;-3.10;99.90
5705;DHT22;2877;48.238;11.160;2024-01-15T03:42:15;-3.10;99.90
5705;DHT22;2877;48.238;11.160;2024-01-15T03:44:41;-3.10;99.90
5705;DHT22;2877;48.238;11.160;2024-01-15T03:47:06;-3.10;99.90
5705;DHT22;2877;48.238;11.160;2024-01-15T03:49:32;-3.10;99.90
5705;DHT22;2877;48.238;11.160;2024-01-15T03:51:57;-3.10;99.90
5705;DHT22;2877;48.238;11.160;2024-01-15T03:54:23;-3.10;99.90
5705;DHT22;2877;48.238;11.160;2024-01-15T03:56:48;-3.10;99.90
5705;DHT22;2877;48.238;11.160;2024-01-15T03:59:14;-2.90;99.90
5705;DHT22;2877;48.238;11.160;2024-01-15T04:01:40;-2.80;99.90
5705;DHT22;2877;48.238;11.160;2024-01-15T04:04:05;-2.60;99.90
5705;DHT22;2877;48.238;11.160;2024-01-15T04:06:31;-2.50;99.90
5705;DHT22;2877;48.238;11.160;2024-01-15T04:08:56;-2.40;99.90
5705;DHT22;2877;48.238;11.160;2024-01-15T04:11:22;-2.30;99.90
5705;DHT22;2877;48.238;11.160;2024-01-15T04:13:47;-2.20;99.90
5705;DHT22;2877;48.238;11.160;2024-01-15T04:16:13;-2.10;99.90
5705;DHT22;2877;48.238;11.160;2024-01-15T04:18:39;-2.10;99.90
5705;DHT22;2877;48.238;11.160;2024-01-15T04:21:05;-2.20;99.90
5705;DHT22;2877;48.238;11.160;2024-01-15T04:23:35;-2.20;99.90
5705;DHT22;2877;48.238;11.160;2024-01-15T04:26:00;-2.30;99.90
5705;DHT22;2877;48.238;11.160;2024-01-15T04:28:26;-2.30;99.90
5705;DHT22;2877;48.238;11.160;2024-01-15T04:30:51;-2.30;99.90
5705;DHT22;2877;48.238;11.160;2024-01-15T04:33:17;-2.30;99.90
5705;DHT22;2877;48.238;11.160;2024-01-15T04:35:42;-2.40;99.90
5705;DHT22;2877;48.238;11.160;2024-01-15T04:38:08;-2.40;99.90
5705;DHT22;2877;48.238;11.160;2024-01-15T04:40:33;-2.40;99.90
5705;DHT22;2877;48.238;11.160;2024-01-15T04:42:59;-2.40;99.90
5705;DHT22;2877;48.238;11.160;2024-01-15T04:45:24;-2.40;99.90
5705;DHT22;2877;48.238;11.160;2024-01-15T04:47:54;-2.50;99.90
5705;DHT22;2877;48.238;11.160;2024-01-15T04:50:20;-2.60;99.90
5705;DHT22;2877;48.238;11.160;2024-01-15T04:52:45;-2.60;99.90
5705;DHT22;2877;48.238;11.160;2024-01-15T04:55:11;-2.60;99.90
5705;DHT22;2877;48.238;11.160;2024-01-15T04:57:36;-2.60;99.90
5705;DHT22;2877;48.238;11.160;2024-01-15T05:00:02;-2.60;99.90
5705;DHT22;2877;48.238;11.160;2024-01-15T05:02:28;-2.60;99.90
5705;DHT22;2877;48.238;11.160;2024-01-15T05:04:53;-2.60;99.90
5705;DHT22;2877;48.238;11.160;2024-01-15T05:07:19;-2.60;99.90
5705;DHT22;2877;48.238;11.160;2024-01-15T05:09:44;-2.60;99.90
5705;DHT22;2877;48.238;11.160;2024-01-15T05:12:10;-2.50;99.90
5705;DHT22;2877;48.238;11.160;2024-01-15T05:14:36;-2.50;99.90
5705;DHT22;2877;48.238;11.160;2024-01-15T05:17:02;-2.40;99.90
5705;DHT22;2877;48.238;11.160;2024-01-15T05:19:27;-2.50;99.90
5705;DHT22;2877;48.238;11.160;2024-01-15T05:21:53;-2.40;99.90
5705;DHT22;2877;48.238;11.160;2024-01-15T05:24:18;-2.40;99.90
5705;DHT22;2877;48.238;11.160;2024-01-15T05:26:44;-2.30;99.90
5705;DHT22;2877;48.238;11.160;2024-01-15T05:29:09;-2.30;99.90
5705;DHT22;2877;48.238;11.160;2024-01-15T05:31:36;-2.30;99.90
5705;DHT22;2877;48.238;11.160;2024-01-15T05:34:01;-2.30;99.90
5705;DHT22;2877;48.238;11.160;2024-01-15T05:36:27;-2.30;99.90
5705;DHT22;2877;48.238;11.160;2024-01-15T05:38:52;-2.30;99.90
5705;DHT22;2877;48.238;11.160;2024-01-15T05:41:18;-2.20;99.90
5705;DHT22;2877;48.238;11.160;2024-01-15T05:43:43;-2.20;99.90
5705;DHT22;2877;48.238;11.160;2024-01-15T05:46:09;-2.20;99.90
5705;DHT22;2877;48.238;11.160;2024-01-15T05:48:34;-2.20;99.90
5705;DHT22;2877;48.238;11.160;2024-01-15T05:51:00;-2.20;99.90
5705;DHT22;2877;48.238;11.160;2024-01-15T05:53:25;-2.20;99.90
5705;DHT22;2877;48.238;11.160;2024-01-15T05:55:51;-2.20;99.90
5705;DHT22;2877;48.238;11.160;2024-01-15T05:58:16;-2.20;99.90
5705;DHT22;2877;48.238;11.160;2024-01-15T06:00:42;-2.20;99.90
5705;DHT22;2877;48.238;11.160;2024-01-15T06:03:07;-2.10;99.90
5705;DHT22;2877;48.238;11.160;2024-01-15T06:05:33;-2.10;99.90
5705;DHT22;2877;48.238;11.160;2024-01-15T06:07:58;-2.10;99.90
5705;DHT22;2877;48.238;11.160;2024-01-15T06:10:24;-2.00;99.90
5705;DHT22;2877;48.238;11.160;2024-01-15T06:12:50;-2.10;99.90
5705;DHT22;2877;48.238;11.160;2024-01-15T06:15:15;-2.00;99.90
5705;DHT22;2877;48.238;11.160;2024-01-15T06:17:41;-2.00;99.90
5705;DHT22;2877;48.238;11.160;2024-01-15T06:20:07;-2.00;99.90
5705;DHT22;2877;48.238;11.160;2024-01-15T06:22:32;-2.00;99.90
5705;DHT22;2877;48.238;11.160;2024-01-15T06:24:58;-2.10;99.90
5705;DHT22;2877;48.238;11.160;2024-01-15T06:27:24;-2.10;99.90
5705;DHT22;2877;48.238;11.160;2024-01-15T06:29:50;-2.10;99.90
5705;DHT22;2877;48.238;11.160;2024-01-15T06:32:15;-2.10;99.90
5705;DHT22;2877;48.238;11.160;2024-01-15T06:34:41;-2.10;99.90
5705;DHT22;2877;48.238;11.160;2024-01-15T06:37:06;-2.00;99.90
5705;DHT22;2877;48.238;11.160;2024-01-15T06:39:32;-2.10;99.90
5705;DHT22;2877;48.238;11.160;2024-01-15T06:41:57;-2.00;99.90
5705;DHT22;2877;48.238;11.160;2024-01-15T06:44:23;-2.00;99.90
5705;DHT22;2877;48.238;11.160;2024-01-15T06:46:48;-2.00;99.90
5705;DHT22;2877;48.238;11.160;2024-01-15T06:49:14;-2.00;99.90
5705;DHT22;2877;48.238;11.160;2024-01-15T06:51:40;-2.00;99.90
5705;DHT22;2877;48.238;11.160;2024-01-15T06:54:07;-2.00;99.90
5705;DHT22;2877;48.238;11.160;2024-01-15T06:56:32;-2.00;99.90
5705;DHT22;2877;48.238;11.160;2024-01-15T06:58:58;-2.00;99.90
5705;DHT22;2877;48.238;11.160;2024-01-15T07:01:24;-2.00;99.90
5705;DHT22;2877;48.238;11.160;2024-01-15T07:03:49;-2.00;99.90
5705;DHT22;2877;48.238;11.160;2024-01-15T07:06:15;-1.90;99.90
5705;DHT22;2877;48.238;11.160;2024-01-15T07:08:41;-1.90;99.90
5705;DHT22;2877;48.238;11.160;2024-01-15T07:11:07;-1.90;99.90
5705;DHT22;2877;48.238;11.160;2024-01-15T07:13:33;-1.90;99.90
5705;DHT22;2877;48.238;11.160;2024-01-15T07:15:58;-1.90;99.90
5705;DHT22;2877;48.238;11.160;2024-01-15T07:18:24;-1.90;99.90
5705;DHT22;2877;48.238;11.160;2024-01-15T07:20:50;-1.80;99.90
5705;DHT22;2877;48.238;11.160;2024-01-15T07:23:16;-1.80;99.90
5705;DHT22;2877;48.238;11.160;2024-01-15T07:25:42;-1.80;99.90
5705;DHT22;2877;48.238;11.160;2024-01-15T07:28:08;-1.80;99.90
5705;DHT22;2877;48.238;11.160;2024-01-15T07:30:34;-1.80;99.90
5705;DHT22;2877;48.238;11.160;2024-01-15T07:32:59;-1.80;99.90
5705;DHT22;2877;48.238;11.160;2024-01-15T07:35:25;-1.70;99.90
5705;DHT22;2877;48.238;11.160;2024-01-15T07:37:50;-1.70;99.90
5705;DHT22;2877;48.238;11.160;2024-01-15T07:40:16;-1.70;99.90
5705;DHT22;2877;48.238;11.160;2024-01-15T07:42:42;-1.60;99.90
5705;DHT22;2877;48.238;11.160;2024-01-15T07:45:11;-1.60;99.90
5705;DHT22;2877;48.238;11.160;2024-01-15T07:47:36;-1.50;99.90
5705;DHT22;2877;48.238;11.160;2024-01-15T07:50:02;-1.50;99.90
5705;DHT22;2877;48.238;11.160;2024-01-15T07:52:28;-1.40;99.90
5705;DHT22;2877;48.238;11.160;2024-01-15T07:54:53;-1.30;99.90
5705;DHT22;2877;48.238;11.160;2024-01-15T07:57:20;-1.30;99.90
5705;DHT22;2877;48.238;11.160;2024-01-15T07:59:46;-1.30;99.90
5705;DHT22;2877;48.238;11.160;2024-01-15T08:02:12;-1.30;99.90
5705;DHT22;2877;48.238;11.160;2024-01-15T08:04:38;-1.30;99.90
5705;DHT22;2877;48.238;11.160;2024-01-15T08:07:06;-1.30;99.90
5705;DHT22;2877;48.238;11.160;2024-01-15T08:09:35;-1.20;99.90
5705;DHT22;2877;48.238;11.160;2024-01-15T08:12:00;-1.10;99.90
5705;DHT22;2877;48.238;11.160;2024-01-15T08:14:26;-1.10;99.90
5705;DHT22;2877;48.238;11.160;2024-01-15T08:16:52;-1.10;99.90
5705;DHT22;2877;48.238;11.160;2024-01-15T08:19:17;-0.90;99.90
5705;DHT22;2877;48.238;11.160;2024-01-15T08:21:45;-0.60;99.90
5705;DHT22;2877;48.238;11.160;2024-01-15T08:24:10;-0.60;99.90
5705;DHT22;2877;48.238;11.160;2024-01-15T08:26:36;-0.70;99.90
5705;DHT22;2877;48.238;11.160;2024-01-15T08:29:02;-0.80;99.90
5705;DHT22;2877;48.238;11.160;2024-01-15T08:31:27;-0.90;99.90
5705;DHT22;2877;48.238;11.160;2024-01-15T08:33:53;-0.90;99.90
5705;DHT22;2877;48.238;11.160;2024-01-15T08:36:19;-0.90;99.90
5705;DHT22;2877;48.238;11.160;2024-01-15T08:38:44;-0.90;99.90
5705;DHT22;2877;48.238;11.160;2024-01-15T08:41:10;-0.90;99.90
5705;DHT22;2877;48.238;11.160;2024-01-15T08:43:36;-0.90;99.90
5705;DHT22;2877;48.238;11.160;2024-01-15T08:46:02;-0.90;99.90
5705;DHT22;2877;48.238;11.160;2024-01-15T08:48:28;-0.90;99.90
5705;DHT22;2877;48.238;11.160;2024-01-15T08:50:54;-0.90;99.90
5705;DHT22;2877;48.238;11.160;2024-01-15T08:53:20;-0.90;99.90
5705;DHT22;2877;48.238;11.160;2024-01-15T08:55:45;-0.90;99.90
5705;DHT22;2877;48.238;11.160;2024-01-15T08:58:11;-0.80;99.90
5705;DHT22;2877;48.238;11.160;2024-01-15T09:00:36;-0.80;99.90
5705;DHT22;2877;48.238;11.160;2024-01-15T09:03:02;-0.80;99.90
5705;DHT22;2877;48.238;11.160;2024-01-15T09:05:28;-0.80;99.90
5705;DHT22;2877;48.238;11.160;2024-01-15T09:07:54;-0.80;99.90
5705;DHT22;2877;48.238;11.160;2024-01-15T09:10:20;-0.70;99.90
5705;DHT22;2877;48.238;11.160;2024-01-15T09:12:46;-0.70;99.90
5705;DHT22;2877;48.238;11.160;2024-01-15T09:15:12;-0.70;99.90
5705;DHT22;2877;48.238;11.160;2024-01-15T09:17:37;-0.70;99.90
5705;DHT22;2877;48.238;11.160;2024-01-15T09:20:03;-0.60;99.90
5705;DHT22;2877;48.238;11.160;2024-01-15T09:22:32;-0.60;99.90
5705;DHT22;2877;48.238;11.160;2024-01-15T09:24:58;-0.60;99.90
5705;DHT22;2877;48.238;11.160;2024-01-15T09:27:24;-0.60;99.90
5705;DHT22;2877;48.238;11.160;2024-01-15T09:29:52;-0.60;99.90
5705;DHT22;2877;48.238;11.160;2024-01-15T09:32:17;-0.50;99.90
5705;DHT22;2877;48.238;11.160;2024-01-15T09:34:43;-0.50;99.90
5705;DHT22;2877;48.238;11.160;2024-01-15T09:37:09;-0.50;99.90
5705;DHT22;2877;48.238;11.160;2024-01-15T09:39:35;-0.40;99.90
5705;DHT22;2877;48.238;11.160;2024-01-15T09:42:01;-0.40;99.90
5705;DHT22;2877;48.238;11.160;2024-01-15T09:44:28;-0.40;99.90
5705;DHT22;2877;48.238;11.160;2024-01-15T09:46:55;-0.40;99.90
5705;DHT22;2877;48.238;11.160;2024-01-15T09:49:21;-0.40;99.90
5705;DHT22;2877;48.238;11.160;2024-01-15T09:51:47;-0.40;99.90
5705;DHT22;2877;48.238;11.160;2024-01-15T09:54:13;-0.40;99.90
5705;DHT22;2877;48.238;11.160;2024-01-15T09:56:45;-0.40;99.90
5705;DHT22;2877;48.238;11.160;2024-01-15T09:59:15;-0.40;99.90
5705;DHT22;2877;48.238;11.160;2024-01-15T10:01:42;-0.30;99.90
5705;DHT22;2877;48.238;11.160;2024-01-15T10:04:08;-0.30;99.90
5705;DHT22;2877;48.238;11.160;2024-01-15T10:06:34;-0.20;99.90
5705;DHT22;2877;48.238;11.160;2024-01-15T10:09:00;-0.20;99.90
5705;DHT22;2877;48.238;11.160;2024-01-15T10:11:26;-0.10;99.90
5705;DHT22;2877;48.238;11.160;2024-01-15T10:13:52;-0.10;99.90
5705;DHT22;2877;48.238;11.160;2024-01-15T10:16:21;0.10;99.90
5705;DHT22;2877;48.238;11.160;2024-01-15T10:18:48;0.10;99.90
5705;DHT22;2877;48.238;11.160;2024-01-15T10:21:13;0.00;99.90
5705;DHT22;2877;48.238;11.160;2024-01-15T10:23:39;0.00;99.90
5705;DHT22;2877;48.238;11.160;2024-01-15T10:26:05;-0.10;99.90
5705;DHT22;2877;48.238;11.160;2024-01-15T10:28:31;-0.20;99.90
5705;DHT22;2877;48.238;11.160;2024-01-15T10:30:58;-0.20;99.90
5705;DHT22;2877;48.238;11.160;2024-01-15T10:33:27;-0.30;99.90
5705;DHT22;2877;48.238;11.160;2024-01-15T10:35:57;-0.20;99.90
5705;DHT22;2877;48.238;11.160;2024-01-15T10:38:23;-0.10;99.90
5705;DHT22;2877;48.238;11.160;2024-01-15T10:40:53;0.00;99.90
5705;DHT22;2877;48.238;11.160;2024-01-15T10:43:19;-0.10;99.90
5705;DHT22;2877;48.238;11.160;2024-01-15T10:45:45;-0.10;99.90
5705;DHT22;2877;48.238;11.160;2024-01-15T10:48:11;-0.10;99.90
5705;DHT22;2877;48.238;11.160;2024-01-15T10:50:37;0.00;99.90
5705;DHT22;2877;48.238;11.160;2024-01-15T10:53:03;0.10;99.90
5705;DHT22;2877;48.238;11.160;2024-01-15T10:55:30;0.10;99.90
5705;DHT22;2877;48.238;11.160;2024-01-15T10:57:57;0.10;99.90
5705;DHT22;2877;48.238;11.160;2024-01-15T11:00:23;0.00;99.90
5705;DHT22;2877;48.238;11.160;2024-01-15T11:02:50;-0.10;99.90
5705;DHT22;2877;48.238;11.160;2024-01-15T11:05:16;-0.20;99.90
5705;DHT22;2877;48.238;11.160;2024-01-15T11:07:44;-0.30;99.90
5705;DHT22;2877;48.238;11.160;2024-01-15T11:10:39;-0.30;99.90
5705;DHT22;2877;48.238;11.160;2024-01-15T11:13:20;-0.20;99.90
5705;DHT22;2877;48.238;11.160;2024-01-15T11:16:03;-0.20;99.90
5705;DHT22;2877;48.238;11.160;2024-01-15T11:18:30;-0.10;99.90
5705;DHT22;2877;48.238;11.160;2024-01-15T11:21:26;0.00;99.90
5705;DHT22;2877;48.238;11.160;2024-01-15T11:24:00;0.20;99.90
5705;DHT22;2877;48.238;11.160;2024-01-15T11:27:03;0.20;99.90
5705;DHT22;2877;48.238;11.160;2024-01-15T11:31:58;0.30;99.90
5705;DHT22;2877;48.238;11.160;2024-01-15T11:37:15;0.40;99.90
5705;DHT22;2877;48.238;11.160;2024-01-15T11:39:44;0.50;99.90
5705;DHT22;2877;48.238;11.160;2024-01-15T11:42:11;0.50;99.90
5705;DHT22;2877;48.238;11.160;2024-01-15T11:44:38;0.60;99.90
5705;DHT22;2877;48.238;11.160;2024-01-15T11:47:08;0.80;99.90
5705;DHT22;2877;48.238;11.160;2024-01-15T11:52:19;1.40;99.90
5705;DHT22;2877;48.238;11.160;2024-01-15T11:57:51;1.80;99.90
5705;DHT22;2877;48.238;11.160;2024-01-15T12:00:17;1.90;99.90
5705;DHT22;2877;48.238;11.160;2024-01-15T12:02:45;2.00;99.90
5705;DHT22;2877;48.238;11.160;2024-01-15T12:05:11;1.90;99.90
5705;DHT22;2877;48.238;11.160;2024-01-15T12:07:45;1.50;99.90
5705;DHT22;2877;48.238;11.160;2024-01-15T12:10:18;1.40;99.90
5705;DHT22;2877;48.238;11.160;2024-01-15T12:12:59;1.40;99.90
5705;DHT22;2877;48.238;11.160;2024-01-15T12:15:26;1.30;99.90
5705;DHT22;2877;48.238;11.160;2024-01-15T12:17:52;1.30;99.90
5705;DHT22;2877;48.238;11.160;2024-01-15T12:20:19;1.40;99.90
5705;DHT22;2877;48.238;11.160;2024-01-15T12:22:45;1.40;99.90
5705;DHT22;2877;48.238;11.160;2024-01-15T12:25:11;1.50;99.90
5705;DHT22;2877;48.238;11.160;2024-01-15T12:27:37;1.60;99.90
5705;DHT22;2877;48.238;11.160;2024-01-15T12:30:03;1.80;99.90
5705;DHT22;2877;48.238;11.160;2024-01-15T12:32:29;2.00;99.90
5705;DHT22;2877;48.238;11.160;2024-01-15T12:34:55;2.10;99.90
5705;DHT22;2877;48.238;11.160;2024-01-15T12:37:21;2.00;99.90
5705;DHT22;2877;48.238;11.160;2024-01-15T12:39:47;2.00;99.90
5705;DHT22;2877;48.238;11.160;2024-01-15T12:42:16;1.90;99.90
5705;DHT22;2877;48.238;11.160;2024-01-15T12:44:42;1.90;99.90
5705;DHT22;2877;48.238;11.160;2024-01-15T12:47:08;1.90;99.90
5705;DHT22;2877;48.238;11.160;2024-01-15T12:49:38;1.90;99.90
5705;DHT22;2877;48.238;11.160;2024-01-15T12:52:08;1.80;99.90
5705;DHT22;2877;48.238;11.160;2024-01-15T12:54:34;1.70;99.90
5705;DHT22;2877;48.238;11.160;2024-01-15T12:57:00;1.60;99.90
5705;DHT22;2877;48.238;11.160;2024-01-15T12:59:25;1.60;99.90
5705;DHT22;2877;48.238;11.160;2024-01-15T13:01:51;1.60;99.90
5705;DHT22;2877;48.238;11.160;2024-01-15T13:04:23;1.60;99.90
5705;DHT22;2877;48.238;11.160;2024-01-15T13:06:50;1.80;99.90
5705;DHT22;2877;48.238;11.160;2024-01-15T13:09:16;1.70;99.90
5705;DHT22;2877;48.238;11.160;2024-01-15T13:11:43;1.70;99.90
5705;DHT22;2877;48.238;11.160;2024-01-15T13:14:08;1.70;99.90
5705;DHT22;2877;48.238;11.160;2024-01-15T13:16:34;1.60;99.90
5705;DHT22;2877;48.238;11.160;2024-01-15T13:18:59;1.70;99.90
5705;DHT22;2877;48.238;11.160;2024-01-15T13:21:25;1.70;99.90
5705;DHT22;2877;48.238;11.160;2024-01-15T13:23:51;1.70;99.90
5705;DHT22;2877;48.238;11.160;2024-01-15T13:26:16;1.60;99.90
5705;DHT22;2877;48.238;11.160;2024-01-15T13:28:43;1.50;99.90
5705;DHT22;2877;48.238;11.160;2024-01-15T13:31:09;1.40;99.90
5705;DHT22;2877;48.238;11.160;2024-01-15T13:33:34;1.30;99.90
5705;DHT22;2877;48.238;11.160;2024-01-15T13:36:00;1.30;99.90
5705;DHT22;2877;48.238;11.160;2024-01-15T13:38:26;1.20;99.90
5705;DHT22;2877;48.238;11.160;2024-01-15T13:40:53;1.20;99.90
5705;DHT22;2877;48.238;11.160;2024-01-15T13:43:20;1.10;99.90
5705;DHT22;2877;48.238;11.160;2024-01-15T13:45:46;1.10;99.90
5705;DHT22;2877;48.238;11.160;2024-01-15T13:48:12;1.10;99.90
5705;DHT22;2877;48.238;11.160;2024-01-15T13:50:37;1.10;99.90
5705;DHT22;2877;48.238;11.160;2024-01-15T13:53:03;1.10;99.90
5705;DHT22;2877;48.238;11.160;2024-01-15T13:55:30;1.10;99.90
5705;DHT22;2877;48.238;11.160;2024-01-15T13:57:55;1.00;99.90
5705;DHT22;2877;48.238;11.160;2024-01-15T14:00:21;1.00;99.90
5705;DHT22;2877;48.238;11.160;2024-01-15T14:02:47;1.00;99.90
5705;DHT22;2877;48.238;11.160;2024-01-15T14:05:13;0.90;99.90
5705;DHT22;2877;48.238;11.160;2024-01-15T14:07:39;0.90;99.90
5705;DHT22;2877;48.238;11.160;2024-01-15T14:10:05;0.80;99.90
5705;DHT22;2877;48.238;11.160;2024-01-15T14:12:31;0.80;99.90
5705;DHT22;2877;48.238;11.160;2024-01-15T14:14:57;0.70;99.90
5705;DHT22;2877;48.238;11.160;2024-01-15T14:17:22;0.70;99.90
5705;DHT22;2877;48.238;11.160;2024-01-15T14:19:48;0.70;99.90
5705;DHT22;2877;48.238;11.160;2024-01-15T14:22:13;0.70;99.90
5705;DHT22;2877;48.238;11.160;2024-01-15T14:24:39;0.70;99.90
5705;DHT22;2877;48.238;11.160;2024-01-15T14:27:04;0.60;99.90
5705;DHT22;2877;48.238;11.160;2024-01-15T14:29:32;0.60;99.90
5705;DHT22;2877;48.238;11.160;2024-01-15T14:31:58;0.60;99.90
5705;DHT22;2877;48.238;11.160;2024-01-15T14:34:25;0.60;99.90
5705;DHT22;2877;48.238;11.160;2024-01-15T14:36:51;0.60;99.90
5705;DHT22;2877;48.238;11.160;2024-01-15T14:39:19;0.60;99.90
5705;DHT22;2877;48.238;11.160;2024-01-15T14:41:45;0.60;99.90
5705;DHT22;2877;48.238;11.160;2024-01-15T14:44:11;0.60;99.90
5705;DHT22;2877;48.238;11.160;2024-01-15T14:46:38;0.60;99.90
5705;DHT22;2877;48.238;11.160;2024-01-15T14:49:03;0.60;99.90
5705;DHT22;2877;48.238;11.160;2024-01-15T14:51:29;0.50;99.90
5705;DHT22;2877;48.238;11.160;2024-01-15T14:53:54;0.50;99.90
5705;DHT22;2877;48.238;11.160;2024-01-15T14:56:20;0.50;99.90
5705;DHT22;2877;48.238;11.160;2024-01-15T14:58:46;0.50;99.90
5705;DHT22;2877;48.238;11.160;2024-01-15T15:01:12;0.50;99.90
5705;DHT22;2877;48.238;11.160;2024-01-15T15:03:38;0.50;99.90
5705;DHT22;2877;48.238;11.160;2024-01-15T15:06:04;0.50;99.90
5705;DHT22;2877;48.238;11.160;2024-01-15T15:08:29;0.50;99.90
5705;DHT22;2877;48.238;11.160;2024-01-15T15:10:55;0.40;99.90
5705;DHT22;2877;48.238;11.160;2024-01-15T15:13:22;0.40;99.90
5705;DHT22;2877;48.238;11.160;2024-01-15T15:15:48;0.40;99.90
5705;DHT22;2877;48.238;11.160;2024-01-15T15:18:14;0.40;99.90
5705;DHT22;2877;48.238;11.160;2024-01-15T15:20:39;0.40;99.90
5705;DHT22;2877;48.238;11.160;2024-01-15T15:23:05;0.40;99.90
5705;DHT22;2877;48.238;11.160;2024-01-15T15:25:34;0.40;99.90
5705;DHT22;2877;48.238;11.160;2024-01-15T15:28:00;0.40;99.90
5705;DHT22;2877;48.238;11.160;2024-01-15T15:30:26;0.30;99.90
5705;DHT22;2877;48.238;11.160;2024-01-15T15:32:51;0.30;99.90
5705;DHT22;2877;48.238;11.160;2024-01-15T15:35:17;0.30;99.90
5705;DHT22;2877;48.238;11.160;2024-01-15T15:37:42;0.30;99.90
5705;DHT22;2877;48.238;11.160;2024-01-15T15:40:08;0.20;99.90
5705;DHT22;2877;48.238;11.160;2024-01-15T15:42:36;0.10;99.90
5705;DHT22;2877;48.238;11.160;2024-01-15T15:45:03;0.10;99.90
5705;DHT22;2877;48.238;11.160;2024-01-15T15:47:29;0.00;99.90
5705;DHT22;2877;48.238;11.160;2024-01-15T15:49:54;-0.10;99.90
5705;DHT22;2877;48.238;11.160;2024-01-15T15:52:19;-0.20;99.90
5705;DHT22;2877;48.238;11.160;2024-01-15T15:54:45;-0.30;99.90